Time;durP1;ratioP1;P1;durP2;ratioP2;P2;SDS_P1;SDS_P2;PMS_P1;PMS_P2;Temp;Humidity;BMP_temperature;BMP_pressure;BME280_temperature;BME280_humidity;BME280_pressure;Samples;Min_cycle;Max_cycle;Signal;HPM_P1;HPM_P2
2022/03/03 00:00:13;;;;;;;36.83;21.05;;;-1.20;93.50;;;;;;5032699;28;20025;-71
2022/03/03 00:02:39;;;;;;;32.90;20.02;;;-1.30;93.60;;;;;;5036395;28;20021;-71
2022/03/03 00:05:05;;;;;;;31.60;18.13;;;-1.40;93.80;;;;;;5035274;28;20024;-70
2022/03/03 00:07:31;;;;;;;37.45;20.38;;;-1.40;94.00;;;;;;5036292;28;20033;-71
2022/03/03 00:09:57;;;;;;;34.22;18.83;;;-1.20;93.30;;;;;;5033027;28;20325;-72
2022/03/03 00:12:22;;;;;;;27.60;16.75;;;-1.00;92.50;;;;;;5035255;28;20033;-71
2022/03/03 00:14:48;;;;;;;33.55;18.17;;;-1.00;92.00;;;;;;5031805;28;20338;-71
2022/03/03 00:17:14;;;;;;;31.17;18.40;;;-1.00;91.60;;;;;;5034822;28;20037;-72
2022/03/03 00:19:40;;;;;;;33.25;17.95;;;-1.10;91.50;;;;;;5037224;28;20034;-71
2022/03/03 00:22:06;;;;;;;29.60;17.20;;;-1.10;91.70;;;;;;5033238;28;20033;-72
2022/03/03 00:24:32;;;;;;;32.03;18.17;;;-1.10;91.60;;;;;;5035894;28;20100;-71
2022/03/03 00:26:58;;;;;;;34.85;20.67;;;-1.20;92.00;;;;;;5035849;28;20049;-71
2022/03/03 00:29:24;;;;;;;35.08;18.85;;;-1.40;92.30;;;;;;5034414;28;20029;-71
2022/03/03 00:31:49;;;;;;;28.95;17.33;;;-1.50;93.10;;;;;;5035234;28;20024;-71
2022/03/03 00:34:15;;;;;;;36.97;21.02;;;-1.60;93.10;;;;;;5032446;28;20025;-71
2022/03/03 00:36:41;;;;;;;34.38;19.90;;;-1.70;93.60;;;;;;5034879;28;20099;-71
2022/03/03 00:39:10;;;;;;;37.08;19.70;;;-1.70;94.30;;;;;;5031030;28;20029;-71
2022/03/03 00:41:36;;;;;;;33.88;19.58;;;-1.70;94.70;;;;;;5035673;28;20057;-71
2022/03/03 00:44:02;;;;;;;34.92;20.20;;;-1.70;94.90;;;;;;5034893;28;20449;-72
2022/03/03 00:46:28;;;;;;;33.88;19.23;;;-1.50;94.80;;;;;;5035957;28;20025;-72
2022/03/03 00:48:59;;;;;;;35.45;20.25;;;-1.50;94.60;;;;;;5034838;28;20033;-72
2022/03/03 00:51:25;;;;;;;31.98;18.75;;;-1.30;94.50;;;;;;5035539;28;20078;-72
2022/03/03 00:53:51;;;;;;;33.35;19.38;;;-1.10;93.50;;;;;;5031105;28;20029;-72
2022/03/03 00:56:18;;;;;;;36.83;19.40;;;-1.00;93.20;;;;;;5035403;28;20027;-72
2022/03/03 00:58:44;;;;;;;34.38;19.05;;;-1.00;92.80;;;;;;5033137;28;20038;-72
2022/03/03 01:01:09;;;;;;;33.22;19.58;;;-1.00;92.90;;;;;;5033608;28;20079;-71
2022/03/03 01:03:35;;;;;;;32.13;18.35;;;-1.00;93.00;;;;;;5034630;28;20038;-71
2022/03/03 01:06:01;;;;;;;34.42;19.05;;;-0.90;93.00;;;;;;5033118;28;20017;-71
2022/03/03 01:08:27;;;;;;;31.50;17.63;;;-0.90;92.40;;;;;;5034241;28;20518;-70
2022/03/03 01:10:53;;;;;;;30.45;18.48;;;-0.90;91.90;;;;;;5034521;28;20033;-72
2022/03/03 01:13:20;;;;;;;34.97;19.73;;;-1.00;92.00;;;;;;5034673;28;20045;-71
2022/03/03 01:15:46;;;;;;;33.95;19.20;;;-1.10;92.90;;;;;;5033571;28;20056;-72
2022/03/03 01:18:12;;;;;;;30.40;18.60;;;-1.20;92.90;;;;;;5033209;28;20410;-72
2022/03/03 01:20:37;;;;;;;30.02;18.65;;;-1.40;93.00;;;;;;5033692;28;20030;-72
2022/03/03 01:23:03;;;;;;;28.48;18.17;;;-1.60;93.50;;;;;;5030456;28;20030;-72
2022/03/03 01:25:29;;;;;;;33.78;18.15;;;-1.70;94.10;;;;;;5031055;28;20025;-71
2022/03/03 01:27:55;;;;;;;30.67;18.15;;;-1.70;94.30;;;;;;5032678;28;20041;-72
2022/03/03 01:30:20;;;;;;;26.88;16.20;;;-1.80;94.50;;;;;;5032626;28;20123;-70
2022/03/03 01:32:46;;;;;;;28.88;17.23;;;-1.60;94.10;;;;;;5034185;28;20033;-71
2022/03/03 01:35:12;;;;;;;28.60;18.00;;;-1.50;93.60;;;;;;5033335;28;20325;-72
2022/03/03 01:37:37;;;;;;;30.27;16.83;;;-1.40;93.30;;;;;;5033096;28;20037;-71
2022/03/03 01:40:05;;;;;;;27.45;17.90;;;-1.50;93.10;;;;;;5034364;28;20051;-71
2022/03/03 01:42:31;;;;;;;36.13;19.48;;;-1.60;93.30;;;;;;5033781;28;20029;-71
2022/03/03 01:44:56;;;;;;;31.70;19.13;;;-1.70;93.80;;;;;;5032511;28;20026;-72
2022/03/03 01:47:25;;;;;;;34.45;17.75;;;-1.80;94.00;;;;;;5033783;28;20071;-70
2022/03/03 01:49:53;;;;;;;32.17;18.50;;;-1.80;94.20;;;;;;5033219;28;20108;-71
2022/03/03 01:52:20;;;;;;;33.00;18.55;;;-1.90;94.40;;;;;;5030771;28;20025;-69
2022/03/03 01:54:46;;;;;;;29.15;17.65;;;-2.10;94.90;;;;;;5031603;28;20314;-71
2022/03/03 01:57:12;;;;;;;33.83;20.10;;;-2.10;95.60;;;;;;5033106;28;20021;-70
2022/03/03 01:59:38;;;;;;;32.13;19.73;;;-1.90;96.20;;;;;;5030597;28;20037;-72
2022/03/03 02:02:08;;;;;;;31.13;19.50;;;-1.80;95.90;;;;;;5032732;28;20120;-71
2022/03/03 02:04:34;;;;;;;31.60;19.17;;;-1.60;95.30;;;;;;5015245;28;20029;-71
2022/03/03 02:07:00;;;;;;;36.25;20.20;;;-1.60;95.00;;;;;;5033870;28;20025;-71
2022/03/03 02:09:26;;;;;;;33.58;18.90;;;-1.50;94.80;;;;;;5031929;28;20406;-71
2022/03/03 02:11:52;;;;;;;35.75;20.48;;;-1.70;94.70;;;;;;5034541;28;20029;-71
2022/03/03 02:14:18;;;;;;;36.80;21.45;;;-1.70;94.70;;;;;;5029287;28;20056;-72
2022/03/03 02:16:44;;;;;;;32.83;20.30;;;-1.80;94.80;;;;;;5031632;28;20032;-72
2022/03/03 02:19:17;;;;;;;35.22;19.48;;;-1.90;95.10;;;;;;5021377;28;20042;-71
2022/03/03 02:21:47;;;;;;;38.40;21.75;;;-2.00;95.40;;;;;;5028105;28;20032;-71
2022/03/03 02:24:13;;;;;;;34.85;20.42;;;-2.10;95.50;;;;;;5035222;28;20040;-70
2022/03/03 02:26:39;;;;;;;32.63;20.20;;;-2.20;95.70;;;;;;5034042;28;20037;-70
2022/03/03 02:29:05;;;;;;;34.45;20.88;;;-2.30;96.30;;;;;;5033173;28;20036;-70
2022/03/03 02:31:31;;;;;;;35.95;20.98;;;-2.50;96.70;;;;;;5033706;28;20112;-70
2022/03/03 02:33:58;;;;;;;32.33;20.80;;;-2.50;97.30;;;;;;5033971;28;20397;-70
2022/03/03 02:36:29;;;;;;;35.85;21.60;;;-2.40;97.50;;;;;;5034350;28;20049;-71
2022/03/03 02:39:00;;;;;;;36.55;22.50;;;-2.50;97.40;;;;;;5033367;28;20029;-72
2022/03/03 02:41:28;;;;;;;35.42;19.98;;;-2.40;97.70;;;;;;5034745;28;20053;-71
2022/03/03 02:43:55;;;;;;;37.30;20.67;;;-2.30;97.70;;;;;;5031365;28;20029;-72
2022/03/03 02:46:20;;;;;;;36.40;21.50;;;-2.30;97.50;;;;;;5034592;28;20350;-72
2022/03/03 02:48:47;;;;;;;36.13;21.02;;;-2.20;97.40;;;;;;5033185;28;20033;-72
2022/03/03 02:51:13;;;;;;;32.97;21.42;;;-2.30;97.50;;;;;;5033787;28;20032;-72
2022/03/03 02:53:42;;;;;;;35.97;20.15;;;-2.40;97.60;;;;;;5034664;28;20052;-71
2022/03/03 02:56:08;;;;;;;32.72;19.20;;;-2.50;97.70;;;;;;5031405;28;20033;-72
2022/03/03 02:58:33;;;;;;;36.75;19.90;;;-2.30;97.80;;;;;;5031116;28;20037;-70
2022/03/03 03:01:01;;;;;;;36.78;20.30;;;-2.00;97.40;;;;;;5032753;28;20037;-72
2022/03/03 03:03:26;;;;;;;35.40;19.85;;;-1.80;96.80;;;;;;5031193;28;20025;-72
2022/03/03 03:05:52;;;;;;;33.42;19.48;;;-1.70;96.30;;;;;;5032347;28;20083;-71
2022/03/03 03:08:18;;;;;;;32.78;19.67;;;-1.60;95.90;;;;;;5032952;28;20025;-71
2022/03/03 03:10:44;;;;;;;30.95;18.42;;;-1.50;95.60;;;;;;5031055;28;20335;-70
2022/03/03 03:13:12;;;;;;;29.92;18.98;;;-1.40;95.40;;;;;;5034022;28;20052;-69
2022/03/03 03:15:39;;;;;;;30.10;18.05;;;-1.40;95.00;;;;;;5031675;28;20037;-71
2022/03/03 03:18:12;;;;;;;32.53;18.73;;;-1.30;94.80;;;;;;5031185;28;20029;-72
2022/03/03 03:20:42;;;;;;;32.60;19.17;;;-1.30;94.30;;;;;;5031617;28;20087;-69
2022/03/03 03:23:13;;;;;;;28.88;17.30;;;-1.40;94.10;;;;;;5031929;28;20307;-71
2022/03/03 03:25:43;;;;;;;33.40;20.13;;;-1.50;94.10;;;;;;5032845;28;20034;-71
2022/03/03 03:28:16;;;;;;;29.02;18.00;;;-1.70;94.60;;;;;;5032094;28;20053;-72
2022/03/03 03:30:42;;;;;;;31.10;17.83;;;-1.90;95.20;;;;;;5032524;28;20034;-71
2022/03/03 03:33:08;;;;;;;34.63;19.33;;;-2.00;95.30;;;;;;5032489;28;20033;-71
2022/03/03 03:35:34;;;;;;;33.05;18.27;;;-2.00;95.50;;;;;;5033754;28;20033;-71
2022/03/03 03:38:01;;;;;;;31.10;20.60;;;-2.10;95.80;;;;;;5033513;28;20029;-72
2022/03/03 03:40:27;;;;;;;31.55;19.20;;;-2.20;96.30;;;;;;5033702;28;20029;-72
2022/03/03 03:42:53;;;;;;;37.83;20.20;;;-2.10;96.90;;;;;;5033217;28;20018;-73
2022/03/03 03:45:18;;;;;;;36.30;19.60;;;-2.00;96.70;;;;;;5030117;28;20026;-71
2022/03/03 03:47:44;;;;;;;32.95;20.00;;;-1.90;96.40;;;;;;5033528;28;20331;-71
2022/03/03 03:50:13;;;;;;;33.22;19.02;;;-1.80;96.20;;;;;;5035863;28;20122;-71
2022/03/03 03:52:40;;;;;;;35.15;18.92;;;-1.60;95.80;;;;;;5037183;28;20143;-72
2022/03/03 03:55:08;;;;;;;32.55;19.42;;;-1.50;95.40;;;;;;5036878;28;20037;-71
2022/03/03 03:57:35;;;;;;;31.90;18.77;;;-1.60;95.10;;;;;;5027624;28;20030;-72
2022/03/03 04:00:01;;;;;;;33.17;18.50;;;-1.60;95.20;;;;;;5036223;28;20029;-72
2022/03/03 04:02:27;;;;;;;33.50;19.13;;;-1.70;95.20;;;;;;5036828;28;20120;-71
2022/03/03 04:04:52;;;;;;;33.53;20.58;;;-1.80;95.40;;;;;;5035266;28;20029;-72
2022/03/03 04:07:18;;;;;;;34.47;20.58;;;-2.00;95.70;;;;;;5037803;28;20349;-72
2022/03/03 04:09:44;;;;;;;36.65;19.95;;;-2.20;96.20;;;;;;5032136;28;20296;-71
2022/03/03 04:12:10;;;;;;;32.63;18.42;;;-2.30;96.70;;;;;;5040145;28;20026;-72
2022/03/03 04:14:36;;;;;;;34.95;19.50;;;-2.40;96.90;;;;;;5033672;28;20056;-71
2022/03/03 04:17:02;;;;;;;30.10;18.48;;;-2.40;97.30;;;;;;5037356;28;20413;-71
2022/03/03 04:19:28;;;;;;;30.83;18.83;;;-2.10;97.70;;;;;;5028516;28;20029;-71
2022/03/03 04:21:53;;;;;;;34.78;19.48;;;-1.90;97.20;;;;;;5031663;28;20035;-72
2022/03/03 04:24:19;;;;;;;35.17;18.38;;;-1.60;96.40;;;;;;5036263;28;20022;-71
2022/03/03 04:26:45;;;;;;;29.27;17.63;;;-1.30;95.50;;;;;;5036733;28;20072;-72
2022/03/03 04:29:10;;;;;;;31.67;17.70;;;-1.20;94.70;;;;;;5051029;28;20053;-71
2022/03/03 04:31:36;;;;;;;33.47;18.45;;;-1.10;94.20;;;;;;5036798;28;20033;-71
2022/03/03 04:34:02;;;;;;;38.35;21.27;;;-1.10;93.70;;;;;;5035231;28;20029;-72
2022/03/03 04:36:28;;;;;;;27.20;16.58;;;-1.20;93.90;;;;;;5037155;28;20026;-71
2022/03/03 04:38:54;;;;;;;31.35;18.98;;;-1.30;93.90;;;;;;5037995;28;20040;-72
2022/03/03 04:41:20;;;;;;;30.92;18.20;;;-1.20;93.90;;;;;;5036996;28;20314;-71
2022/03/03 04:43:45;;;;;;;30.88;19.10;;;-1.10;93.70;;;;;;5035641;28;20330;-72
2022/03/03 04:46:11;;;;;;;31.52;19.30;;;-1.10;93.70;;;;;;5036419;28;20021;-72
2022/03/03 04:48:37;;;;;;;36.47;18.05;;;-1.10;93.70;;;;;;5036281;28;20378;-71
2022/03/03 04:51:03;;;;;;;30.63;17.92;;;-1.00;93.60;;;;;;5036779;28;20025;-72
2022/03/03 04:53:29;;;;;;;29.65;17.58;;;-1.00;93.50;;;;;;5032947;28;20128;-72
2022/03/03 04:55:59;;;;;;;32.25;17.73;;;-1.00;93.40;;;;;;5031815;28;20061;-72
2022/03/03 04:58:25;;;;;;;29.00;18.17;;;-1.00;93.40;;;;;;5034210;28;20354;-72
2022/03/03 05:00:51;;;;;;;30.20;17.63;;;-1.00;93.40;;;;;;5030428;28;20043;-71
2022/03/03 05:03:17;;;;;;;30.58;17.73;;;-1.10;93.30;;;;;;5033450;28;20064;-72
2022/03/03 05:05:43;;;;;;;28.23;18.38;;;-1.20;93.60;;;;;;5031456;28;20292;-72
2022/03/03 05:08:09;;;;;;;30.30;18.20;;;-1.30;94.00;;;;;;5033441;28;20025;-72
2022/03/03 05:10:35;;;;;;;28.55;17.50;;;-1.30;94.20;;;;;;5030620;28;20079;-71
2022/03/03 05:13:04;;;;;;;30.27;17.00;;;-1.30;94.30;;;;;;5031223;28;20498;-71
2022/03/03 05:15:30;;;;;;;30.23;18.52;;;-1.20;94.10;;;;;;5030563;28;20120;-71
2022/03/03 05:17:58;;;;;;;34.15;19.15;;;-1.30;93.90;;;;;;5029563;28;20033;-71
2022/03/03 05:20:25;;;;;;;74.95;38.55;;;-1.60;94.10;;;;;;5031634;28;20064;-70
2022/03/03 05:22:50;;;;;;;117.63;52.70;;;-1.90;95.20;;;;;;5031531;28;20030;-70
2022/03/03 05:25:16;;;;;;;68.88;35.88;;;-2.20;96.10;;;;;;5031052;28;20029;-70
2022/03/03 05:27:42;;;;;;;61.63;32.70;;;-2.40;96.60;;;;;;5026731;28;20099;-69
2022/03/03 05:30:09;;;;;;;39.55;22.48;;;-2.70;96.90;;;;;;5028370;28;20062;-69
2022/03/03 05:32:36;;;;;;;33.17;19.27;;;-2.80;97.50;;;;;;5029244;28;20036;-70
2022/03/03 05:35:02;;;;;;;33.65;20.95;;;-2.80;98.00;;;;;;5030996;28;20143;-71
2022/03/03 05:37:28;;;;;;;33.25;19.70;;;-2.70;98.00;;;;;;5031742;28;20300;-71
2022/03/03 05:39:54;;;;;;;33.28;18.75;;;-2.60;98.00;;;;;;5031608;28;20037;-71
2022/03/03 05:42:20;;;;;;;33.88;20.05;;;-2.50;98.00;;;;;;5032302;28;20067;-71
2022/03/03 05:44:47;;;;;;;32.08;20.25;;;-2.50;97.90;;;;;;5029736;28;20877;-72
2022/03/03 05:47:17;;;;;;;35.63;21.60;;;-2.50;97.80;;;;;;5046230;28;20029;-71
2022/03/03 05:49:44;;;;;;;33.67;20.30;;;-2.60;97.90;;;;;;5033352;28;20083;-70
2022/03/03 05:52:11;;;;;;;34.50;20.35;;;-2.60;97.90;;;;;;5041263;28;20025;-71
2022/03/03 05:54:37;;;;;;;34.55;20.48;;;-2.70;98.00;;;;;;5032774;28;20083;-71
2022/03/03 05:57:12;;;;;;;44.78;27.35;;;-2.80;98.00;;;;;;5030469;28;20036;-71
2022/03/03 05:59:41;;;;;;;60.63;32.97;;;-2.90;98.00;;;;;;5029417;28;20090;-71
2022/03/03 06:02:08;;;;;;;48.00;28.90;;;-3.10;98.00;;;;;;5031226;28;20029;-71
2022/03/03 06:04:38;;;;;;;52.85;29.85;;;-3.10;98.00;;;;;;5032650;28;20322;-71
2022/03/03 06:07:07;;;;;;;52.15;30.35;;;-3.10;98.00;;;;;;5030236;28;20126;-70
2022/03/03 06:09:35;;;;;;;54.50;32.55;;;-3.10;98.00;;;;;;5029958;28;20029;-71
2022/03/03 06:12:06;;;;;;;56.05;31.42;;;-3.10;98.00;;;;;;5027406;28;20056;-69
2022/03/03 06:15:03;;;;;;;55.83;30.25;;;-3.10;98.00;;;;;;5022487;28;20034;-71
2022/03/03 06:17:30;;;;;;;46.47;27.67;;;-3.10;98.00;;;;;;5022771;28;20041;-71
2022/03/03 06:20:00;;;;;;;49.67;29.73;;;-3.20;98.00;;;;;;5025265;28;20469;-71
2022/03/03 06:22:29;;;;;;;54.47;31.63;;;-3.30;98.00;;;;;;5026327;28;20361;-71
2022/03/03 06:24:55;;;;;;;49.30;28.58;;;-3.40;98.00;;;;;;5035765;28;20045;-70
2022/03/03 06:27:21;;;;;;;65.05;35.45;;;-3.40;98.00;;;;;;5033577;28;20065;-73
2022/03/03 06:29:46;;;;;;;57.83;33.00;;;-3.40;98.00;;;;;;5029827;28;20029;-71
2022/03/03 06:32:12;;;;;;;56.25;31.00;;;-3.30;98.00;;;;;;5033524;28;20116;-71
2022/03/03 06:34:38;;;;;;;43.03;24.48;;;-3.10;98.00;;;;;;5034692;28;20032;-72
2022/03/03 06:37:05;;;;;;;35.28;21.70;;;-2.80;98.00;;;;;;5034454;28;20061;-71
2022/03/03 06:39:31;;;;;;;34.17;19.73;;;-2.60;98.00;;;;;;5036171;28;20108;-71
2022/03/03 06:41:57;;;;;;;35.17;20.27;;;-2.20;98.00;;;;;;5034206;28;20121;-72
2022/03/03 06:44:22;;;;;;;45.92;26.45;;;-2.00;98.00;;;;;;5032064;28;20401;-72
2022/03/03 06:46:48;;;;;;;37.78;20.42;;;-1.80;97.00;;;;;;5034286;28;20039;-71
2022/03/03 06:49:14;;;;;;;31.90;19.35;;;-1.70;96.60;;;;;;5028628;28;20542;-72
2022/03/03 06:51:47;;;;;;;31.92;18.73;;;-1.80;96.80;;;;;;5032448;28;20445;-72
2022/03/03 06:54:21;;;;;;;38.50;23.48;;;-1.80;96.80;;;;;;5028569;28;20025;-71
2022/03/03 06:56:57;;;;;;;58.65;33.47;;;-1.70;96.90;;;;;;5028843;28;20037;-71
2022/03/03 06:59:25;;;;;;;40.88;24.95;;;-1.70;96.80;;;;;;5027222;28;20025;-71
2022/03/03 07:01:52;;;;;;;43.10;25.48;;;-1.70;96.80;;;;;;5028326;28;20108;-71
2022/03/03 07:04:22;;;;;;;30.15;17.23;;;-1.50;96.30;;;;;;5029407;28;20032;-71
2022/03/03 07:06:49;;;;;;;31.02;16.17;;;-1.30;96.10;;;;;;5029775;28;20080;-71
2022/03/03 07:09:16;;;;;;;28.38;16.40;;;-1.00;94.80;;;;;;5028089;28;20026;-71
2022/03/03 07:11:44;;;;;;;30.83;16.00;;;-0.50;93.00;;;;;;5032071;28;20083;-72
2022/03/03 07:14:10;;;;;;;32.35;16.20;;;-0.20;92.10;;;;;;5045649;28;20049;-72
2022/03/03 07:16:50;;;;;;;29.85;16.60;;;0.00;91.40;;;;;;5031925;28;20499;-72
2022/03/03 07:19:36;;;;;;;28.95;16.88;;;0.20;90.80;;;;;;5032690;28;20025;-72
2022/03/03 07:22:32;;;;;;;26.83;17.00;;;0.40;90.30;;;;;;5023118;28;20037;-72
2022/03/03 07:25:08;;;;;;;27.10;14.80;;;0.60;89.30;;;;;;5034189;28;20021;-72
2022/03/03 07:27:35;;;;;;;28.92;16.27;;;1.00;87.10;;;;;;5036681;28;20046;-72
2022/03/03 07:30:07;;;;;;;26.63;15.75;;;1.30;85.60;;;;;;5041422;28;20028;-72
2022/03/03 07:32:34;;;;;;;28.67;15.93;;;1.70;84.30;;;;;;5056452;28;20021;-72
2022/03/03 07:35:05;;;;;;;27.33;15.70;;;2.00;83.30;;;;;;5036344;28;20026;-72
2022/03/03 07:37:36;;;;;;;27.38;17.38;;;2.10;83.20;;;;;;5037914;28;20033;-72
2022/03/03 07:40:10;;;;;;;28.77;16.65;;;2.20;83.90;;;;;;5038657;28;20026;-71
2022/03/03 07:42:36;;;;;;;28.67;15.52;;;2.30;84.30;;;;;;5038096;28;20026;-73
2022/03/03 07:45:07;;;;;;;30.65;16.38;;;2.40;84.30;;;;;;5036983;28;20039;-72
2022/03/03 07:47:33;;;;;;;26.83;17.00;;;2.60;84.20;;;;;;5035562;28;20035;-72
2022/03/03 07:49:59;;;;;;;27.55;15.75;;;2.90;83.80;;;;;;5038103;28;20441;-72
2022/03/03 07:52:26;;;;;;;25.95;16.02;;;2.80;85.00;;;;;;5018977;28;20026;-73
2022/03/03 07:54:53;;;;;;;28.73;14.70;;;2.60;85.80;;;;;;5037244;28;20066;-71
2022/03/03 07:57:21;;;;;;;29.05;14.80;;;2.70;85.90;;;;;;5038067;28;20026;-72
2022/03/03 07:59:55;;;;;;;24.40;14.27;;;2.80;85.10;;;;;;5036595;28;20365;-72
2022/03/03 08:02:22;;;;;;;;;;;2.90;83.80;;;;;;5038795;28;20025;-73
2022/03/03 08:04:50;;;;;;;42.03;24.35;;;3.10;83.70;;;;;;5037808;28;19942;-72
2022/03/03 08:07:17;;;;;;;51.65;32.90;;;3.30;82.40;;;;;;5037035;28;20083;-72
2022/03/03 08:09:48;;;;;;;50.90;32.60;;;3.30;82.30;;;;;;5035632;28;20063;-72
2022/03/03 08:12:16;;;;;;;46.40;24.85;;;3.40;82.40;;;;;;5037514;28;20040;-72
2022/03/03 08:14:42;;;;;;;40.05;24.75;;;3.40;82.80;;;;;;5034871;28;20036;-71
2022/03/03 08:17:14;;;;;;;39.35;26.88;;;3.30;82.50;;;;;;5037965;28;20029;-70
2022/03/03 08:19:42;;;;;;;39.47;26.23;;;3.30;82.80;;;;;;5036453;28;20391;-70
2022/03/03 08:22:09;;;;;;;38.35;23.80;;;3.40;83.00;;;;;;5036371;28;20041;-70
2022/03/03 08:24:42;;;;;;;35.13;19.23;;;3.70;81.90;;;;;;5037865;28;20040;-70
2022/03/03 08:27:11;;;;;;;32.75;19.15;;;4.30;80.80;;;;;;5035998;28;20083;-73
2022/03/03 08:29:37;;;;;;;32.83;19.63;;;5.30;78.20;;;;;;5035490;28;20033;-72
2022/03/03 08:32:04;;;;;;;30.27;18.92;;;6.30;75.50;;;;;;5036823;28;20631;-72
2022/03/03 08:34:46;;;;;;;28.52;19.45;;;7.00;73.40;;;;;;5037699;28;20091;-72
2022/03/03 08:37:28;;;;;;;27.75;17.75;;;7.20;71.90;;;;;;5036338;28;20022;-73
2022/03/03 08:39:58;;;;;;;32.78;19.58;;;7.90;70.60;;;;;;5035802;28;20033;-72
2022/03/03 08:42:31;;;;;;;29.10;18.73;;;8.70;68.40;;;;;;5029591;28;20033;-71
2022/03/03 08:45:03;;;;;;;29.90;19.25;;;9.20;66.80;;;;;;5035498;28;20041;-71
2022/03/03 08:47:30;;;;;;;29.77;18.17;;;9.20;66.70;;;;;;5037694;28;20013;-71
2022/03/03 08:49:59;;;;;;;27.00;17.92;;;9.10;66.00;;;;;;5034889;28;20018;-71
2022/03/03 08:52:26;;;;;;;29.27;19.35;;;9.10;66.00;;;;;;5038076;28;20116;-71
2022/03/03 08:54:51;;;;;;;30.25;18.58;;;9.30;66.10;;;;;;5036697;28;20418;-71
2022/03/03 08:57:17;;;;;;;25.33;16.60;;;9.70;65.30;;;;;;5036434;28;20064;-70
2022/03/03 08:59:43;;;;;;;27.98;18.35;;;10.10;64.00;;;;;;5034107;28;20469;-71
2022/03/03 09:02:12;;;;;;;27.75;17.50;;;10.80;62.20;;;;;;5033168;28;20025;-71
2022/03/03 09:04:39;;;;;;;32.67;19.52;;;10.70;62.30;;;;;;5034798;28;20048;-71
2022/03/03 09:07:05;;;;;;;29.67;19.40;;;10.70;62.80;;;;;;5035185;28;20323;-69
2022/03/03 09:09:30;;;;;;;28.60;19.40;;;10.70;62.60;;;;;;5031237;28;20025;-69
2022/03/03 09:11:56;;;;;;;33.08;19.80;;;10.10;63.10;;;;;;5036630;28;20041;-70
2022/03/03 09:14:21;;;;;;;26.35;17.25;;;9.50;64.30;;;;;;5035171;28;20331;-70
2022/03/03 09:16:47;;;;;;;28.40;20.00;;;10.10;63.90;;;;;;5031578;28;20124;-69
2022/03/03 09:19:13;;;;;;;29.75;19.23;;;10.30;62.30;;;;;;5036239;28;20025;-71
2022/03/03 09:21:40;;;;;;;30.75;18.20;;;10.70;61.90;;;;;;5036866;28;20040;-70
2022/03/03 09:24:06;;;;;;;27.88;18.60;;;10.50;62.60;;;;;;5035009;28;20319;-71
2022/03/03 09:26:32;;;;;;;30.30;18.85;;;11.00;62.50;;;;;;5034502;28;20065;-70
2022/03/03 09:28:58;;;;;;;29.90;17.92;;;10.90;62.10;;;;;;5034782;28;20025;-69
2022/03/03 09:31:23;;;;;;;30.10;18.48;;;11.20;59.80;;;;;;5036531;28;20110;-69
2022/03/03 09:33:50;;;;;;;31.63;19.02;;;11.10;60.90;;;;;;5036606;28;20032;-71
2022/03/03 09:36:18;;;;;;;26.42;16.90;;;11.30;61.10;;;;;;5025270;28;20038;-70
2022/03/03 09:38:44;;;;;;;24.38;16.40;;;11.80;60.20;;;;;;5031791;28;20326;-70
2022/03/03 09:41:09;;;;;;;28.27;17.58;;;11.40;57.60;;;;;;5033971;28;20025;-71
2022/03/03 09:43:35;;;;;;;28.65;18.00;;;11.90;57.40;;;;;;5035548;28;20013;-69
2022/03/03 09:46:01;;;;;;;27.20;17.75;;;11.70;57.10;;;;;;5035031;28;20322;-72
2022/03/03 09:48:26;;;;;;;26.33;17.27;;;12.10;57.30;;;;;;5033877;28;20112;-70
2022/03/03 09:50:52;;;;;;;28.80;17.08;;;12.60;55.20;;;;;;5033296;28;20072;-71
2022/03/03 09:53:18;;;;;;;28.88;16.95;;;12.70;56.50;;;;;;5030343;28;20026;-71
2022/03/03 09:55:46;;;;;;;24.42;16.08;;;12.70;53.50;;;;;;5033753;28;20033;-72
2022/03/03 09:58:15;;;;;;;28.48;17.17;;;13.10;53.70;;;;;;5034465;28;20029;-70
2022/03/03 10:00:42;;;;;;;27.33;17.80;;;13.30;53.00;;;;;;5033529;28;20018;-70
2022/03/03 10:03:14;;;;;;;26.60;16.50;;;12.70;53.30;;;;;;5030614;28;20029;-70
2022/03/03 10:05:45;;;;;;;29.23;17.15;;;13.30;53.80;;;;;;5033464;28;20021;-71
2022/03/03 10:08:12;;;;;;;29.80;18.08;;;14.60;52.20;;;;;;5034107;28;20037;-71
2022/03/03 10:10:41;;;;;;;25.85;16.85;;;14.20;51.60;;;;;;5040288;28;20057;-72
2022/03/03 10:13:08;;;;;;;33.00;18.70;;;13.50;53.00;;;;;;5031572;28;20037;-72
2022/03/03 10:15:38;;;;;;;29.20;17.50;;;13.50;53.90;;;;;;5034494;28;20067;-71
2022/03/03 10:18:11;;;;;;;30.65;18.00;;;13.80;53.90;;;;;;5033922;28;20079;-70
2022/03/03 10:20:55;;;;;;;27.10;18.45;;;14.00;53.50;;;;;;5030409;28;20025;-71
2022/03/03 10:23:30;;;;;;;29.40;17.48;;;14.30;53.90;;;;;;5031383;28;20032;-72
2022/03/03 10:26:02;;;;;;;28.25;18.15;;;13.80;53.00;;;;;;5032998;28;20030;-71
2022/03/03 10:28:30;;;;;;;29.65;18.98;;;12.90;55.20;;;;;;5033905;28;20026;-72
2022/03/03 10:31:03;;;;;;;29.48;18.00;;;13.20;54.90;;;;;;5034736;28;20033;-72
2022/03/03 10:33:41;;;;;;;29.67;17.83;;;13.00;54.80;;;;;;5033849;28;20223;-72
2022/03/03 10:49:42;;;;;;;27.73;17.85;;;12.60;55.20;;;;;;5976279;21;8181850;-70
2022/03/03 10:52:27;;;;;;;26.83;17.45;;;12.80;55.10;;;;;;6256407;22;20000;-69
2022/03/03 10:55:08;;;;;;;27.40;17.42;;;13.20;54.20;;;;;;6257410;22;20003;-71
2022/03/03 10:58:00;;;;;;;27.10;16.13;;;13.60;53.80;;;;;;6257318;22;20008;-71
2022/03/03 11:00:38;;;;;;;35.75;17.83;;;13.50;54.50;;;;;;6254545;23;20015;-70
2022/03/03 11:03:06;;;;;;;31.60;18.02;;;13.10;54.60;;;;;;6256632;22;20238;-69
2022/03/03 11:05:33;;;;;;;31.25;18.33;;;13.20;54.30;;;;;;6256372;22;20004;-69
2022/03/03 11:08:02;;;;;;;28.42;18.08;;;13.20;55.10;;;;;;6254816;23;20046;-69
2022/03/03 11:10:45;;;;;;;30.13;17.50;;;13.70;54.20;;;;;;6257290;22;20054;-70
2022/03/03 11:13:23;;;;;;;31.65;17.40;;;13.50;54.20;;;;;;6256616;23;20057;-71
2022/03/03 11:16:03;;;;;;;29.13;17.77;;;13.60;53.90;;;;;;6256304;23;20095;-71
2022/03/03 11:18:33;;;;;;;28.13;18.65;;;14.10;53.90;;;;;;6257496;22;20004;-69
2022/03/03 11:21:03;;;;;;;26.50;17.63;;;14.20;53.50;;;;;;6257323;22;20003;-72
2022/03/03 11:23:51;;;;;;;28.75;17.75;;;14.20;52.90;;;;;;6254993;22;20000;-70
2022/03/03 11:26:44;;;;;;;27.77;17.92;;;14.00;53.20;;;;;;6257136;22;20318;-70
2022/03/03 11:29:20;;;;;;;27.92;18.20;;;14.20;53.80;;;;;;6257173;22;20250;-70
2022/03/03 11:32:14;;;;;;;30.23;17.38;;;14.50;52.90;;;;;;6257126;22;20000;-73
2022/03/03 11:34:45;;;;;;;28.05;16.48;;;14.20;53.00;;;;;;6257350;22;20000;-71
2022/03/03 11:37:28;;;;;;;27.65;17.95;;;14.20;53.30;;;;;;6256499;23;20054;-71
2022/03/03 11:39:58;;;;;;;26.90;16.65;;;14.30;52.10;;;;;;6256198;22;20047;-72
2022/03/03 11:42:34;;;;;;;30.67;17.92;;;14.20;52.70;;;;;;6256638;22;20227;-71
2022/03/03 11:45:12;;;;;;;29.50;17.50;;;13.70;53.00;;;;;;6255492;23;20007;-70
2022/03/03 11:47:42;;;;;;;26.55;16.85;;;13.60;54.40;;;;;;6255872;23;20151;-71
2022/03/03 11:50:16;;;;;;;24.45;15.50;;;14.40;54.00;;;;;;6251139;22;20223;-71
2022/03/03 11:52:59;;;;;;;29.58;17.88;;;14.80;51.80;;;;;;6248931;23;20004;-71
2022/03/03 11:55:36;;;;;;;28.65;17.58;;;14.60;53.00;;;;;;6250319;22;20081;-72
2022/03/03 11:58:12;;;;;;;27.20;16.65;;;14.60;52.30;;;;;;6250694;22;20004;-71
2022/03/03 12:00:45;;;;;;;27.88;16.70;;;15.00;50.80;;;;;;6250660;23;20365;-71
2022/03/03 12:03:13;;;;;;;26.23;15.63;;;15.10;50.20;;;;;;6250345;22;19997;-71
2022/03/03 12:05:45;;;;;;;29.10;18.42;;;15.00;51.30;;;;;;6249118;23;20269;-72
2022/03/03 12:08:17;;;;;;;30.92;17.77;;;14.70;51.40;;;;;;6249204;22;20011;-71
2022/03/03 12:11:11;;;;;;;30.50;18.75;;;13.80;52.80;;;;;;6248875;23;20008;-71
2022/03/03 12:13:41;;;;;;;31.55;17.77;;;13.30;54.50;;;;;;6250188;22;20018;-71
2022/03/03 12:16:30;;;;;;;26.20;16.42;;;13.40;54.00;;;;;;6248998;23;20082;-71
2022/03/03 12:18:56;;;;;;;26.15;16.15;;;13.70;53.60;;;;;;6250557;22;20008;-70
2022/03/03 12:21:26;;;;;;;29.15;17.83;;;14.20;52.50;;;;;;6249249;23;20054;-70
2022/03/03 12:24:13;;;;;;;25.65;16.67;;;14.40;52.10;;;;;;6249059;22;19997;-71
2022/03/03 12:26:59;;;;;;;23.88;15.05;;;13.90;51.30;;;;;;6248544;23;20008;-71
2022/03/03 12:29:33;;;;;;;25.27;15.02;;;13.20;51.60;;;;;;6248662;22;20365;-71
2022/03/03 12:32:34;;;;;;;29.08;17.80;;;13.40;52.80;;;;;;6247874;23;20082;-71
2022/03/03 12:35:12;;;;;;;31.35;17.35;;;13.50;53.70;;;;;;6240786;23;20011;-71
2022/03/03 12:37:46;;;;;;;28.23;16.55;;;13.80;53.70;;;;;;6248751;22;20058;-71
2022/03/03 12:40:15;;;;;;;29.70;17.02;;;13.90;53.70;;;;;;6250152;22;19996;-71
2022/03/03 12:42:46;;;;;;;29.02;17.75;;;14.40;52.30;;;;;;6248967;23;20035;-71
2022/03/03 12:45:15;;;;;;;32.58;18.80;;;14.10;51.70;;;;;;6250142;22;20000;-71
2022/03/03 12:48:07;;;;;;;34.42;17.80;;;13.70;53.10;;;;;;6249533;22;20000;-70
2022/03/03 12:50:35;;;;;;;31.13;18.08;;;13.90;53.00;;;;;;6250256;22;20320;-71